Time;durP1;ratioP1;P1;durP2;ratioP2;P2;SDS_P1;SDS_P2;PMS_P1;PMS_P2;Temp;Humidity;BMP_temperature;BMP_pressure;BME280_temperature;BME280_humidity;BME280_pressure;Samples;Min_cycle;Max_cycle;Signal;HPM_P1;HPM_P2
2022/04/30 00:00:08;;;;;;;22.97;10.40;;;6.40;99.90;;;;;;5112866;28;20661;-57
2022/04/30 00:02:34;;;;;;;21.33;10.83;;;6.30;99.90;;;;;;5110272;28;20253;-57
2022/04/30 00:05:00;;;;;;;21.43;10.60;;;6.20;99.90;;;;;;5111446;28;20209;-57
2022/04/30 00:07:26;;;;;;;23.80;10.97;;;6.20;99.90;;;;;;5112441;28;20178;-57
2022/04/30 00:09:52;;;;;;;21.70;10.40;;;6.10;99.90;;;;;;5112571;28;20171;-57
2022/04/30 00:12:18;;;;;;;19.80;10.50;;;6.10;99.90;;;;;;5112619;27;20172;-57
2022/04/30 00:14:46;;;;;;;22.80;10.57;;;6.10;99.90;;;;;;5112463;28;20171;-57
2022/04/30 00:17:15;;;;;;;19.67;10.50;;;6.00;99.90;;;;;;5112471;28;20182;-57
2022/04/30 00:19:41;;;;;;;17.47;10.40;;;5.90;99.90;;;;;;5112216;28;20210;-57
2022/04/30 00:22:07;;;;;;;20.10;11.60;;;5.90;99.90;;;;;;5112354;28;20561;-57
2022/04/30 00:24:33;;;;;;;16.90;10.77;;;5.90;99.90;;;;;;5112261;27;20263;-57
2022/04/30 00:27:00;;;;;;;19.03;10.60;;;5.80;99.90;;;;;;5112374;28;20171;-57
2022/04/30 00:29:29;;;;;;;18.07;10.63;;;5.80;99.90;;;;;;5112144;28;20697;-57
2022/04/30 00:31:56;;;;;;;16.30;9.90;;;5.60;99.90;;;;;;5112137;28;20171;-57
2022/04/30 00:34:23;;;;;;;18.30;10.00;;;5.70;99.90;;;;;;5112170;28;20172;-58
2022/04/30 00:36:48;;;;;;;15.83;10.47;;;5.70;99.90;;;;;;5112197;28;20657;-58
2022/04/30 00:39:14;;;;;;;20.43;10.53;;;5.70;99.90;;;;;;5111915;28;20293;-58
2022/04/30 00:41:47;;;;;;;20.13;10.80;;;5.70;99.90;;;;;;5110787;28;20181;-58
2022/04/30 00:44:20;;;;;;;15.23;10.47;;;5.60;99.90;;;;;;5111893;28;20167;-58
2022/04/30 00:46:46;;;;;;;19.80;10.10;;;5.60;99.90;;;;;;5111995;28;20175;-58
2022/04/30 00:49:14;;;;;;;19.47;10.57;;;5.60;99.90;;;;;;5111751;28;20241;-58
2022/04/30 00:51:40;;;;;;;17.53;10.97;;;5.70;99.90;;;;;;5111843;28;20179;-58
2022/04/30 00:54:07;;;;;;;18.93;11.27;;;5.70;99.90;;;;;;5111680;28;20194;-58
2022/04/30 00:56:35;;;;;;;21.73;10.93;;;5.70;99.90;;;;;;5111738;28;20163;-58
2022/04/30 00:59:03;;;;;;;24.90;11.37;;;5.60;99.90;;;;;;5111728;28;20313;-58
2022/04/30 01:01:34;;;;;;;22.97;11.80;;;5.60;99.90;;;;;;5111624;28;20174;-58
2022/04/30 01:04:00;;;;;;;24.13;11.50;;;5.60;99.90;;;;;;5111654;28;20253;-58
2022/04/30 01:06:53;;;;;;;20.83;11.40;;;5.70;99.90;;;;;;5111854;28;20529;-58
2022/04/30 01:09:31;;;;;;;21.10;11.23;;;5.70;99.90;;;;;;5111487;28;20198;-58
2022/04/30 01:12:10;;;;;;;20.30;11.73;;;5.60;99.90;;;;;;5111501;28;20536;-58
2022/04/30 01:14:38;;;;;;;18.43;11.43;;;5.60;99.90;;;;;;5110605;28;20175;-58
2022/04/30 01:17:06;;;;;;;20.83;11.37;;;5.60;99.90;;;;;;5111573;28;20703;-58
2022/04/30 01:19:35;;;;;;;21.67;11.70;;;5.60;99.90;;;;;;5111301;28;20202;-58
2022/04/30 01:22:08;;;;;;;20.33;12.37;;;5.60;99.90;;;;;;5111496;28;20227;-58
2022/04/30 01:24:35;;;;;;;21.73;12.70;;;5.60;99.90;;;;;;5111318;28;20175;-58
2022/04/30 01:27:04;;;;;;;20.73;12.83;;;5.60;99.90;;;;;;5111595;28;20175;-58
2022/04/30 01:29:32;;;;;;;22.97;12.70;;;5.60;99.90;;;;;;5111511;28;20320;-58
2022/04/30 01:37:29;;;;;;;19.37;12.17;;;5.60;99.90;;;;;;5115485;28;20629;-56
2022/04/30 01:40:03;;;;;;;23.03;12.17;;;5.60;99.90;;;;;;5115497;28;20295;-56
2022/04/30 01:42:35;;;;;;;21.70;12.23;;;5.60;99.90;;;;;;5115335;28;20650;-56
2022/04/30 01:45:04;;;;;;;20.57;12.67;;;5.60;99.90;;;;;;5115364;28;20163;-57
2022/04/30 01:47:33;;;;;;;20.07;11.93;;;5.60;99.90;;;;;;5115058;28;20175;-57
2022/04/30 01:49:59;;;;;;;21.63;11.50;;;5.60;99.90;;;;;;5115394;28;20211;-57
2022/04/30 01:52:25;;;;;;;24.17;12.60;;;5.70;99.90;;;;;;5115240;28;20656;-58
2022/04/30 01:54:51;;;;;;;22.73;11.77;;;5.70;99.90;;;;;;5115217;28;20246;-57
2022/04/30 01:57:23;;;;;;;24.47;11.70;;;5.70;99.90;;;;;;5115010;28;20166;-57
2022/04/30 01:59:51;;;;;;;19.57;11.53;;;5.70;99.90;;;;;;5114833;28;20214;-57
2022/04/30 02:02:18;;;;;;;20.27;11.93;;;5.50;99.90;;;;;;5114893;28;20167;-57
2022/04/30 02:04:44;;;;;;;21.20;12.33;;;5.40;99.90;;;;;;5115107;28;20198;-57
2022/04/30 02:07:10;;;;;;;16.73;11.27;;;5.20;99.90;;;;;;5112489;28;20641;-57
2022/04/30 02:09:37;;;;;;;19.70;12.60;;;5.10;99.90;;;;;;5114642;28;20174;-57
2022/04/30 02:12:04;;;;;;;19.67;11.87;;;5.10;99.90;;;;;;5114774;28;20170;-57
2022/04/30 02:14:31;;;;;;;26.47;12.37;;;5.10;99.90;;;;;;5114734;28;20266;-57
2022/04/30 02:17:00;;;;;;;19.13;12.00;;;5.00;99.90;;;;;;5114599;28;20171;-57
2022/04/30 02:19:28;;;;;;;21.97;11.93;;;5.00;99.90;;;;;;5114479;28;20703;-57
2022/04/30 02:21:57;;;;;;;22.17;12.63;;;4.90;99.90;;;;;;5114617;28;20191;-57
2022/04/30 02:24:26;;;;;;;21.77;12.47;;;4.90;99.90;;;;;;5114542;28;20194;-57
2022/04/30 02:26:52;;;;;;;21.77;12.43;;;4.90;99.90;;;;;;5114524;27;20176;-58
2022/04/30 02:29:17;;;;;;;20.70;12.40;;;4.80;99.90;;;;;;5114422;28;20175;-57
2022/04/30 02:31:44;;;;;;;21.80;12.50;;;4.90;99.90;;;;;;5114390;28;20197;-57
2022/04/30 02:34:10;;;;;;;23.63;12.77;;;4.80;99.90;;;;;;5114332;28;20733;-57
2022/04/30 02:36:36;;;;;;;25.53;12.40;;;4.80;99.90;;;;;;5114275;28;20258;-58
2022/04/30 02:39:02;;;;;;;24.33;12.50;;;4.70;99.90;;;;;;5114269;28;20285;-57
2022/04/30 02:41:29;;;;;;;21.53;12.33;;;4.70;99.90;;;;;;5114204;28;20232;-57
2022/04/30 02:43:56;;;;;;;26.90;12.50;;;4.70;99.90;;;;;;5113105;28;20179;-58
2022/04/30 02:46:22;;;;;;;19.87;11.77;;;4.60;99.90;;;;;;5114250;27;20163;-58
2022/04/30 02:48:48;;;;;;;23.40;12.50;;;4.60;99.90;;;;;;5114081;28;20837;-58
2022/04/30 02:51:17;;;;;;;21.90;12.80;;;4.60;99.90;;;;;;5114077;28;20641;-58
2022/04/30 02:53:43;;;;;;;22.07;12.70;;;4.60;99.90;;;;;;5114065;27;20175;-58
2022/04/30 02:56:10;;;;;;;25.00;13.40;;;4.60;99.90;;;;;;5113868;28;20174;-58
2022/04/30 03:01:21;;;;;;;22.30;13.87;;;4.60;99.90;;;;;;5114203;28;20661;-58
2022/04/30 03:03:47;;;;;;;26.07;13.50;;;4.50;99.90;;;;;;5113844;28;20184;-58
2022/04/30 03:06:14;;;;;;;22.97;12.70;;;4.50;99.90;;;;;;5113728;28;20242;-58
2022/04/30 03:08:40;;;;;;;27.50;12.73;;;4.60;99.90;;;;;;5113678;28;20197;-58
2022/04/30 03:11:07;;;;;;;22.07;13.00;;;4.60;99.90;;;;;;5113994;28;20163;-58
2022/04/30 03:13:36;;;;;;;26.40;13.93;;;4.50;99.90;;;;;;5113480;28;20221;-58
2022/04/30 03:21:42;;;;;;;23.17;14.27;;;4.40;99.90;;;;;;5113511;28;20223;-58
2022/04/30 03:24:09;;;;;;;21.97;12.60;;;4.40;99.90;;;;;;5113417;28;20170;-58
2022/04/30 03:26:34;;;;;;;21.77;14.40;;;4.30;99.90;;;;;;5113357;28;20179;-58
2022/04/30 03:29:00;;;;;;;26.00;14.00;;;4.30;99.90;;;;;;5113505;28;20555;-58
2022/04/30 03:31:28;;;;;;;21.47;13.10;;;4.20;99.90;;;;;;5113132;28;20175;-58
2022/04/30 03:33:54;;;;;;;25.07;14.73;;;4.10;99.90;;;;;;5113212;28;20175;-58
2022/04/30 03:36:19;;;;;;;22.23;12.93;;;4.10;99.90;;;;;;5113415;28;20224;-58
2022/04/30 03:38:47;;;;;;;26.63;13.80;;;4.10;99.90;;;;;;5113020;28;20260;-58
2022/04/30 03:41:13;;;;;;;24.10;13.37;;;4.10;99.90;;;;;;5113023;28;20214;-58
2022/04/30 03:43:38;;;;;;;23.37;13.20;;;4.20;99.90;;;;;;5113026;28;20191;-58
2022/04/30 03:46:07;;;;;;;24.83;13.40;;;4.10;99.90;;;;;;5113039;28;20195;-58
2022/04/30 03:48:33;;;;;;;24.10;13.10;;;4.10;99.90;;;;;;5112793;28;20685;-58
2022/04/30 03:50:59;;;;;;;28.23;13.80;;;4.10;99.90;;;;;;5112900;28;20169;-58
2022/04/30 03:53:25;;;;;;;25.17;12.80;;;4.00;99.90;;;;;;5112803;28;20198;-58
2022/04/30 03:55:52;;;;;;;25.03;13.57;;;4.00;99.90;;;;;;5112460;28;20203;-58
2022/04/30 03:58:18;;;;;;;27.03;13.03;;;4.00;99.90;;;;;;5112745;28;20318;-58
2022/04/30 04:00:46;;;;;;;23.80;13.80;;;4.00;99.90;;;;;;5112655;28;20673;-58
2022/04/30 04:03:13;;;;;;;22.93;13.40;;;4.00;99.90;;;;;;5112631;28;20175;-58
2022/04/30 04:05:39;;;;;;;27.40;13.80;;;4.00;99.90;;;;;;5112638;28;20654;-58
2022/04/30 04:08:11;;;;;;;24.13;13.80;;;4.00;99.90;;;;;;5112546;28;20171;-58
2022/04/30 04:10:43;;;;;;;30.87;13.83;;;4.00;99.90;;;;;;5110385;28;20171;-58
2022/04/30 04:18:38;;;;;;;23.40;14.03;;;4.10;99.90;;;;;;5112511;28;20222;-58
2022/04/30 04:21:03;;;;;;;27.53;15.50;;;4.10;99.90;;;;;;5112330;28;20167;-58
2022/04/30 04:25:58;;;;;;;30.43;15.83;;;4.00;99.90;;;;;;5112196;28;20163;-58
2022/04/30 04:26:15;;;;;;;29.90;14.90;;;4.00;99.90;;;;;;5112165;28;20224;-58
2022/04/30 04:28:40;;;;;;;25.97;14.93;;;4.10;99.90;;;;;;5112183;28;20164;-58
2022/04/30 04:31:06;;;;;;;26.37;15.20;;;4.10;99.90;;;;;;5112038;28;20242;-58
2022/04/30 04:33:32;;;;;;;23.87;14.57;;;4.00;99.90;;;;;;5112077;28;20216;-58
2022/04/30 04:35:58;;;;;;;22.60;14.70;;;4.00;99.90;;;;;;5112000;28;20167;-58
2022/04/30 04:38:23;;;;;;;28.83;15.17;;;4.00;99.90;;;;;;5111938;28;20251;-58
2022/04/30 04:40:49;;;;;;;29.17;15.47;;;3.90;99.90;;;;;;5112035;28;20191;-58
2022/04/30 04:43:15;;;;;;;35.97;14.73;;;3.90;99.90;;;;;;5112125;28;20538;-58
2022/04/30 04:45:41;;;;;;;25.83;14.07;;;3.90;99.90;;;;;;5111964;28;20248;-58
2022/04/30 04:48:08;;;;;;;26.73;16.13;;;3.90;99.90;;;;;;5111764;28;20218;-58
2022/04/30 04:50:34;;;;;;;27.77;14.40;;;3.80;99.90;;;;;;5111832;28;20175;-58
2022/04/30 04:53:00;;;;;;;22.87;13.97;;;3.80;99.90;;;;;;5111790;28;20173;-58
2022/04/30 04:55:26;;;;;;;26.40;14.80;;;3.70;99.90;;;;;;5111654;28;20258;-58
2022/04/30 04:57:51;;;;;;;27.13;14.90;;;3.70;99.90;;;;;;5111560;28;20198;-58
2022/04/30 05:00:17;;;;;;;28.57;14.43;;;3.80;99.90;;;;;;5111686;28;20266;-58
2022/04/30 05:02:43;;;;;;;26.43;15.33;;;3.90;99.90;;;;;;5111631;28;20179;-58
2022/04/30 05:05:10;;;;;;;30.60;15.73;;;3.90;99.90;;;;;;5111600;28;20209;-58
2022/04/30 05:07:36;;;;;;;25.43;14.80;;;4.00;99.90;;;;;;5110861;28;20163;-58
2022/04/30 05:10:02;;;;;;;29.63;15.10;;;4.00;99.90;;;;;;5111764;28;20680;-58
2022/04/30 05:12:28;;;;;;;25.27;14.77;;;4.10;99.90;;;;;;5111687;28;20280;-58
2022/04/30 05:14:54;;;;;;;25.33;14.97;;;4.10;99.90;;;;;;5111524;28;20606;-57
2022/04/30 05:17:20;;;;;;;27.63;14.80;;;4.10;99.90;;;;;;5111506;28;20648;-57
2022/04/30 05:19:45;;;;;;;27.03;14.00;;;4.20;99.90;;;;;;5111394;28;20826;-57
2022/04/30 05:22:12;;;;;;;24.37;14.87;;;4.20;99.90;;;;;;5111478;28;20257;-57
2022/04/30 05:24:37;;;;;;;24.87;14.13;;;4.20;99.90;;;;;;5111435;28;20172;-57
2022/04/30 05:27:04;;;;;;;28.57;15.80;;;4.30;99.90;;;;;;5111314;28;20567;-57
2022/04/30 05:29:29;;;;;;;28.03;15.00;;;4.30;99.90;;;;;;5111363;28;20255;-57
2022/04/30 05:31:55;;;;;;;27.40;15.03;;;4.40;99.90;;;;;;5111258;28;20167;-57
2022/04/30 05:34:21;;;;;;;29.03;15.23;;;4.40;99.90;;;;;;5111349;28;20171;-57
2022/04/30 05:36:47;;;;;;;27.20;15.00;;;4.50;99.90;;;;;;5109830;28;20228;-57
2022/04/30 05:39:12;;;;;;;25.83;15.13;;;4.50;99.90;;;;;;5111151;28;20255;-57
2022/04/30 05:41:38;;;;;;;31.33;14.83;;;4.60;99.90;;;;;;5111211;28;20212;-57
2022/04/30 05:44:04;;;;;;;24.40;13.40;;;4.70;99.90;;;;;;5111320;28;20646;-57
2022/04/30 05:46:29;;;;;;;33.77;14.53;;;4.70;99.90;;;;;;5111255;28;20202;-57
2022/04/30 05:48:55;;;;;;;30.40;16.20;;;4.70;99.90;;;;;;5110919;28;20215;-58
2022/04/30 05:51:21;;;;;;;27.53;15.07;;;4.70;99.90;;;;;;5111233;28;20167;-57
2022/04/30 05:53:47;;;;;;;23.07;14.90;;;4.80;99.90;;;;;;5111101;28;20163;-57
2022/04/30 05:56:12;;;;;;;27.20;14.67;;;4.90;99.90;;;;;;5111113;28;20179;-57
2022/04/30 05:58:38;;;;;;;26.27;14.20;;;4.90;99.90;;;;;;5110973;28;20211;-57
2022/04/30 06:01:05;;;;;;;27.73;15.13;;;5.00;99.90;;;;;;5110871;28;20638;-57
2022/04/30 06:03:34;;;;;;;29.10;15.77;;;5.10;99.90;;;;;;5110964;28;20199;-57
2022/04/30 06:06:00;;;;;;;25.47;15.10;;;5.10;99.90;;;;;;5110923;28;20164;-57
2022/04/30 06:08:26;;;;;;;27.90;15.73;;;5.20;99.90;;;;;;5111099;28;20220;-57
2022/04/30 06:10:51;;;;;;;26.47;15.37;;;5.20;99.90;;;;;;5111022;28;20242;-57
2022/04/30 06:13:17;;;;;;;27.90;15.57;;;5.40;99.90;;;;;;5111008;28;20221;-57
2022/04/30 06:15:43;;;;;;;28.33;15.03;;;5.50;99.90;;;;;;5110752;28;20183;-58
2022/04/30 06:18:09;;;;;;;28.73;14.83;;;5.60;99.90;;;;;;5111660;28;20199;-57
2022/04/30 06:20:35;;;;;;;30.47;15.10;;;5.70;99.90;;;;;;5114641;28;20621;-57
2022/04/30 06:23:01;;;;;;;32.17;16.10;;;5.80;99.90;;;;;;5114823;28;20194;-57
2022/04/30 06:25:27;;;;;;;29.60;15.03;;;5.90;99.90;;;;;;5114506;28;20669;-57
2022/04/30 06:27:53;;;;;;;25.30;14.57;;;6.00;99.90;;;;;;5112344;28;20179;-57
2022/04/30 06:30:18;;;;;;;25.47;15.13;;;6.10;99.90;;;;;;5114408;28;20240;-58
2022/04/30 06:32:44;;;;;;;25.77;14.67;;;6.10;99.90;;;;;;5114158;28;20175;-58
2022/04/30 06:35:10;;;;;;;26.47;15.10;;;6.20;99.90;;;;;;5114374;28;20170;-57
2022/04/30 06:37:36;;;;;;;29.33;15.73;;;6.30;99.90;;;;;;5114169;28;20167;-57
2022/04/30 06:40:01;;;;;;;32.10;14.90;;;6.40;99.90;;;;;;5114193;28;20267;-57
2022/04/30 06:42:27;;;;;;;33.20;15.40;;;6.40;99.90;;;;;;5114223;28;20167;-57
2022/04/30 06:44:54;;;;;;;29.90;14.57;;;6.40;99.90;;;;;;5114005;28;20616;-58
2022/04/30 06:47:20;;;;;;;24.00;14.60;;;6.50;99.90;;;;;;5114005;28;20271;-58
2022/04/30 06:49:46;;;;;;;27.93;14.20;;;6.50;99.90;;;;;;5113967;28;20221;-58
2022/04/30 06:52:12;;;;;;;34.80;15.83;;;6.60;99.90;;;;;;5114079;28;20616;-58
2022/04/30 06:57:22;;;;;;;23.53;14.30;;;6.70;99.90;;;;;;5114266;28;20660;-57
2022/04/30 06:59:51;;;;;;;25.77;15.00;;;6.70;99.90;;;;;;5113798;28;20199;-57
2022/04/30 07:02:25;;;;;;;27.10;14.10;;;6.70;99.90;;;;;;5114046;28;20188;-57
2022/04/30 07:04:52;;;;;;;26.17;13.70;;;6.80;99.90;;;;;;5113771;28;20549;-57
2022/04/30 07:07:21;;;;;;;28.50;14.27;;;6.90;99.90;;;;;;5113838;28;20198;-57
2022/04/30 07:09:48;;;;;;;24.97;15.03;;;6.90;99.90;;;;;;5113866;28;20175;-57
2022/04/30 07:12:14;;;;;;;28.80;14.97;;;7.00;99.90;;;;;;5113712;28;20186;-58
2022/04/30 07:14:42;;;;;;;26.43;14.27;;;7.10;99.90;;;;;;5113781;28;20222;-58
2022/04/30 07:17:10;;;;;;;24.90;13.53;;;7.20;99.90;;;;;;5113706;27;20178;-57
2022/04/30 07:19:36;;;;;;;21.37;12.83;;;7.20;99.90;;;;;;5113437;28;20360;-58
2022/04/30 07:22:03;;;;;;;21.23;13.50;;;7.40;99.90;;;;;;5113477;28;20174;-57
2022/04/30 07:24:31;;;;;;;24.00;13.60;;;7.50;99.90;;;;;;5113311;28;20227;-57
2022/04/30 07:26:57;;;;;;;22.50;14.13;;;7.60;99.90;;;;;;5112075;28;20175;-58
2022/04/30 07:29:23;;;;;;;21.67;11.87;;;7.70;99.90;;;;;;5113155;28;20171;-58
2022/04/30 07:31:49;;;;;;;20.43;11.93;;;7.90;99.90;;;;;;5113347;28;20707;-58
2022/04/30 07:34:14;;;;;;;23.93;12.47;;;7.90;99.90;;;;;;5114127;28;20201;-57
2022/04/30 07:36:41;;;;;;;24.63;12.40;;;7.90;99.90;;;;;;5113844;28;20689;-58
2022/04/30 07:39:07;;;;;;;19.53;11.13;;;7.70;99.90;;;;;;5113371;28;20215;-58
2022/04/30 07:41:33;;;;;;;22.67;12.03;;;7.80;99.90;;;;;;5112910;28;20199;-58
2022/04/30 07:43:59;;;;;;;21.43;12.60;;;8.00;99.90;;;;;;5112836;28;20200;-57
2022/04/30 07:46:25;;;;;;;20.97;12.57;;;8.30;99.90;;;;;;5112935;28;20168;-58
2022/04/30 07:48:51;;;;;;;19.90;12.77;;;8.40;99.90;;;;;;5112759;28;20222;-58
2022/04/30 07:51:33;;;;;;;19.47;12.47;;;8.50;99.90;;;;;;5112858;28;20178;-58
2022/04/30 07:54:01;;;;;;;18.70;11.30;;;8.40;99.90;;;;;;5111474;28;20645;-57
2022/04/30 07:56:27;;;;;;;22.03;11.63;;;8.60;99.90;;;;;;5112815;28;20167;-58
2022/04/30 07:58:53;;;;;;;20.97;12.00;;;8.70;99.90;;;;;;5112681;28;20211;-59
2022/04/30 08:01:18;;;;;;;22.13;12.20;;;9.00;99.90;;;;;;5112928;28;20163;-58
2022/04/30 08:03:44;;;;;;;18.93;12.40;;;8.90;99.90;;;;;;5111479;28;20637;-58
2022/04/30 08:06:10;;;;;;;16.43;11.30;;;9.10;99.90;;;;;;5112561;28;20675;-58
2022/04/30 08:08:36;;;;;;;17.70;12.17;;;9.30;99.90;;;;;;5112559;28;20171;-58
2022/04/30 08:11:02;;;;;;;20.93;12.10;;;9.60;99.90;;;;;;5112568;28;20167;-57
2022/04/30 08:13:27;;;;;;;18.13;10.93;;;9.80;99.90;;;;;;5112518;28;20194;-57
2022/04/30 08:15:53;;;;;;;17.10;10.57;;;10.00;99.90;;;;;;5112454;28;20203;-57
2022/04/30 08:18:19;;;;;;;21.90;11.17;;;10.10;99.90;;;;;;5112241;28;20282;-58
2022/04/30 08:20:46;;;;;;;18.77;10.33;;;10.90;99.90;;;;;;5112513;28;20202;-57
2022/04/30 08:23:12;;;;;;;17.90;9.67;;;12.30;99.90;;;;;;5112144;28;20168;-57
2022/04/30 08:25:38;;;;;;;13.73;9.10;;;13.10;99.90;;;;;;5112425;28;20171;-56
2022/04/30 08:28:05;;;;;;;18.73;9.93;;;13.80;99.90;;;;;;5112258;28;20575;-56
2022/04/30 08:30:32;;;;;;;28.85;10.30;;;13.90;99.90;;;;;;5112178;28;20175;-56
2022/04/30 08:32:58;;;;;;;21.27;10.27;;;15.10;99.90;;;;;;5112194;28;20159;-56
2022/04/30 08:35:24;;;;;;;16.67;9.15;;;16.10;99.90;;;;;;5112031;28;20265;-57
2022/04/30 08:37:50;;;;;;;12.90;9.40;;;16.60;99.90;;;;;;5111845;28;20198;-57
2022/04/30 08:40:16;;;;;;;14.38;8.77;;;16.80;99.90;;;;;;5112028;28;20178;-56
2022/04/30 08:42:42;;;;;;;10.98;8.93;;;17.00;99.90;;;;;;5111123;28;20175;-57
2022/04/30 08:45:09;;;;;;;13.68;8.82;;;17.10;99.90;;;;;;5112048;28;20167;-57
2022/04/30 08:47:40;;;;;;;12.90;9.23;;;17.60;99.90;;;;;;5109215;28;20171;-57
2022/04/30 08:50:10;;;;;;;12.98;9.70;;;17.90;99.90;;;;;;5111802;28;20163;-57
2022/04/30 08:52:37;;;;;;;13.57;8.98;;;17.10;99.90;;;;;;5111734;28;20198;-57
2022/04/30 08:55:08;;;;;;;12.35;8.98;;;15.60;99.90;;;;;;5111589;28;20429;-57
2022/04/30 08:57:34;;;;;;;18.65;9.90;;;16.30;99.90;;;;;;5111634;28;20179;-57
2022/04/30 09:00:00;;;;;;;11.90;9.43;;;16.50;99.90;;;;;;5111425;28;20209;-57
2022/04/30 09:02:27;;;;;;;13.48;9.38;;;17.00;99.90;;;;;;5111492;28;20163;-57
2022/04/30 09:04:54;;;;;;;14.05;9.27;;;16.80;99.90;;;;;;5111570;28;20189;-57
2022/04/30 09:07:22;;;;;;;13.95;8.38;;;15.70;99.90;;;;;;5111722;28;20206;-57
2022/04/30 09:09:56;;;;;;;11.32;8.13;;;14.30;99.90;;;;;;5111307;28;20195;-56
2022/04/30 09:12:23;;;;;;;12.35;8.70;;;15.10;99.90;;;;;;5111672;28;20175;-56
2022/04/30 09:14:49;;;;;;;15.18;8.35;;;15.10;99.90;;;;;;5111308;28;20641;-56
2022/04/30 09:17:16;;;;;;;14.43;8.27;;;15.10;99.90;;;;;;5111415;28;20171;-56
2022/04/30 09:20:04;;;;;;;16.45;8.00;;;15.70;99.90;;;;;;5111247;28;20297;-56
2022/04/30 09:22:35;;;;;;;17.30;8.10;;;16.00;99.90;;;;;;5111389;28;20155;-57
2022/04/30 09:25:07;;;;;;;17.17;7.57;;;16.00;99.90;;;;;;5111340;28;20199;-56
2022/04/30 09:27:33;;;;;;;12.68;7.85;;;15.40;99.90;;;;;;5111215;28;20190;-56
2022/04/30 09:29:59;;;;;;;11.98;7.55;;;15.40;99.90;;;;;;5111267;28;20167;-56
2022/04/30 09:32:27;;;;;;;14.20;7.82;;;15.90;99.90;;;;;;5111291;28;20246;-56
2022/04/30 09:37:41;;;;;;;13.77;8.40;;;15.20;99.90;;;;;;5111362;28;20189;-56
2022/04/30 09:40:17;;;;;;;17.25;8.07;;;15.80;99.90;;;;;;5111195;28;20198;-56
2022/04/30 09:42:48;;;;;;;14.15;7.88;;;16.20;99.90;;;;;;5111167;28;20258;-56
2022/04/30 09:45:29;;;;;;;10.90;7.82;;;16.50;99.90;;;;;;5110964;28;20228;-56
2022/04/30 09:47:56;;;;;;;12.10;7.20;;;16.60;99.90;;;;;;5110966;28;20719;-56
2022/04/30 09:55:59;;;;;;;9.70;6.32;;;16.70;99.90;;;;;;5082931;28;20202;-56
2022/04/30 09:58:27;;;;;;;13.05;7.38;;;17.10;99.90;;;;;;5115001;28;20191;-56
2022/04/30 10:00:58;;;;;;;9.95;6.25;;;17.20;99.90;;;;;;5114978;28;20182;-56
2022/04/30 10:03:30;;;;;;;12.52;7.25;;;17.40;99.90;;;;;;5114873;28;20171;-56
2022/04/30 10:06:05;;;;;;;10.18;6.75;;;17.40;99.90;;;;;;5114916;28;20212;-56
2022/04/30 10:08:41;;;;;;;13.10;7.43;;;17.70;99.90;;;;;;5114858;28;20162;-56
2022/04/30 10:11:26;;;;;;;13.52;7.25;;;17.90;99.90;;;;;;5114778;28;20197;-56
2022/04/30 10:14:31;;;;;;;13.10;6.93;;;17.00;99.90;;;;;;5114768;28;20164;-56
2022/04/30 10:17:16;;;;;;;12.10;7.28;;;17.60;99.90;;;;;;5114605;28;20215;-56
2022/04/30 10:19:57;;;;;;;12.75;6.88;;;18.80;99.90;;;;;;5114443;28;20241;-56
2022/04/30 10:22:23;;;;;;;11.77;7.32;;;19.10;99.90;;;;;;5114614;28;20217;-56
2022/04/30 10:24:52;;;;;;;11.18;7.63;;;19.20;99.90;;;;;;5114663;28;20167;-56
2022/04/30 10:27:19;;;;;;;10.70;7.43;;;19.20;99.90;;;;;;5114427;28;20163;-57
2022/04/30 10:30:29;;;;;;;12.60;7.07;;;19.60;99.90;;;;;;5114487;28;20159;-56
2022/04/30 10:33:03;;;;;;;10.40;6.88;;;20.30;99.90;;;;;;5113571;28;20163;-56
2022/04/30 10:35:31;;;;;;;12.38;6.80;;;20.60;99.90;;;;;;5114248;28;20258;-56
2022/04/30 10:38:20;;;;;;;9.25;7.07;;;21.00;99.90;;;;;;5114021;28;20177;-56
2022/04/30 10:40:47;;;;;;;10.63;6.35;;;21.40;99.90;;;;;;5114158;28;20205;-58
2022/04/30 10:43:36;;;;;;;9.70;6.85;;;21.70;99.90;;;;;;5112860;28;20163;-57
2022/04/30 10:46:05;;;;;;;10.65;6.82;;;21.90;99.90;;;;;;5114014;28;20182;-58
2022/04/30 10:48:33;;;;;;;12.30;5.70;;;22.60;99.90;;;;;;5114017;27;20214;-58
2022/04/30 10:51:06;;;;;;;7.68;5.65;;;22.80;99.90;;;;;;5114117;28;20171;-58
2022/04/30 10:53:33;;;;;;;8.95;5.35;;;21.30;99.90;;;;;;5112358;28;20186;-58
2022/04/30 10:56:03;;;;;;;9.90;5.72;;;21.20;99.90;;;;;;5113773;28;20217;-61
2022/04/30 10:58:32;;;;;;;8.35;5.50;;;22.80;99.90;;;;;;5113705;28;20708;-57
2022/04/30 11:01:13;;;;;;;8.85;5.50;;;22.80;99.90;;;;;;5113833;28;20199;-58
2022/04/30 11:03:42;;;;;;;9.60;5.40;;;23.60;99.90;;;;;;5113725;28;20283;-58
2022/04/30 11:06:17;;;;;;;8.10;5.65;;;23.10;99.90;;;;;;5112820;28;20167;-58
2022/04/30 11:08:42;;;;;;;7.60;5.45;;;22.70;99.90;;;;;;5113830;28;20179;-58
2022/04/30 11:11:08;;;;;;;7.05;5.20;;;22.60;99.90;;;;;;5113613;28;20170;-57
2022/04/30 11:13:34;;;;;;;6.38;4.70;;;22.80;99.90;;;;;;5113616;28;20658;-57
2022/04/30 11:16:00;;;;;;;6.68;4.85;;;22.50;99.90;;;;;;5113422;27;20291;-58
2022/04/30 11:18:26;;;;;;;6.13;4.25;;;22.60;99.90;;;;;;5113282;28;20245;-58
2022/04/30 11:21:01;;;;;;;6.50;4.80;;;23.80;99.90;;;;;;5113398;28;20163;-58
2022/04/30 11:23:28;;;;;;;6.50;4.70;;;23.70;99.90;;;;;;5113141;28;20175;-58
2022/04/30 11:25:54;;;;;;;6.63;4.65;;;23.60;99.90;;;;;;5113539;28;20178;-58
2022/04/30 11:28:27;;;;;;;6.35;5.18;;;22.50;99.90;;;;;;5113351;28;20167;-58
2022/04/30 11:30:59;;;;;;;6.60;4.68;;;23.20;99.90;;;;;;5113204;27;20174;-58
2022/04/30 11:33:36;;;;;;;12.48;3.80;;;23.60;99.90;;;;;;5113209;28;20183;-58
2022/04/30 11:36:02;;;;;;;6.00;4.03;;;23.20;99.90;;;;;;5113291;28;20193;-59
2022/04/30 11:38:28;;;;;;;6.10;3.85;;;23.10;99.90;;;;;;5111830;28;20238;-58
2022/04/30 11:41:04;;;;;;;7.65;4.80;;;23.70;99.90;;;;;;5113157;28;20209;-58
2022/04/30 11:43:30;;;;;;;7.25;4.75;;;23.80;99.90;;;;;;5113082;28;20625;-58
2022/04/30 11:46:00;;;;;;;6.72;4.55;;;23.50;99.90;;;;;;5112853;28;20179;-58
2022/04/30 11:48:31;;;;;;;7.45;4.75;;;23.80;99.90;;;;;;5113006;28;20697;-59
2022/04/30 11:50:57;;;;;;;6.70;4.55;;;24.00;99.90;;;;;;5113098;28;20183;-58
2022/04/30 11:53:24;;;;;;;5.53;4.20;;;24.80;99.90;;;;;;5112851;28;20179;-58
2022/04/30 11:55:50;;;;;;;5.95;4.20;;;24.90;99.90;;;;;;5112687;28;20323;-58
2022/04/30 11:58:16;;;;;;;8.88;4.80;;;25.20;99.90;;;;;;5112743;28;20278;-58
2022/04/30 12:00:42;;;;;;;7.82;4.95;;;25.40;99.90;;;;;;5112625;28;20247;-59
2022/04/30 12:03:09;;;;;;;6.90;4.38;;;25.20;99.90;;;;;;5112649;27;20213;-58
2022/04/30 12:05:34;;;;;;;9.45;4.45;;;24.50;99.90;;;;;;5112533;27;20648;-57
2022/04/30 12:08:02;;;;;;;5.35;4.20;;;23.50;99.90;;;;;;5112411;28;20198;-57
2022/04/30 12:10:28;;;;;;;5.22;4.20;;;23.90;99.90;;;;;;5112357;28;20215;-58
2022/04/30 12:12:54;;;;;;;5.10;4.32;;;24.10;99.90;;;;;;5112349;28;20182;-56
2022/04/30 12:15:21;;;;;;;7.43;4.60;;;24.00;99.90;;;;;;5112258;28;20261;-57
2022/04/30 12:24:40;;;;;;;8.55;5.20;;;23.30;99.90;;;;;;5112028;28;20191;-58
2022/04/30 12:26:09;;;;;;;9.95;4.60;;;24.00;99.90;;;;;;5112219;28;20274;-58
2022/04/30 12:28:47;;;;;;;6.20;4.15;;;24.40;99.90;;;;;;5112147;28;20207;-58
2022/04/30 12:31:13;;;;;;;5.80;4.13;;;24.70;99.90;;;;;;5111886;28;20193;-59
2022/04/30 12:33:50;;;;;;;5.18;3.95;;;24.20;99.90;;;;;;5111846;28;20167;-58
2022/04/30 12:36:17;;;;;;;6.97;4.22;;;22.40;99.90;;;;;;5111974;28;20598;-57
2022/04/30 12:38:56;;;;;;;5.47;4.40;;;22.10;99.90;;;;;;5112113;27;20159;-57
2022/04/30 12:41:23;;;;;;;4.43;3.67;;;22.00;99.90;;;;;;5111915;28;20186;-57
2022/04/30 12:43:50;;;;;;;5.97;4.05;;;22.30;99.90;;;;;;5111880;28;20194;-58
2022/04/30 12:46:23;;;;;;;7.07;4.32;;;22.50;99.90;;;;;;5111878;28;20179;-58
2022/04/30 12:48:50;;;;;;;5.32;3.40;;;23.40;99.90;;;;;;5111623;28;20223;-58
2022/04/30 12:51:17;;;;;;;6.65;3.95;;;23.60;99.90;;;;;;5111531;28;20196;-58
2022/04/30 12:53:43;;;;;;;4.28;3.00;;;24.00;99.90;;;;;;5111680;28;20179;-58
2022/04/30 12:56:09;;;;;;;5.05;3.40;;;23.60;99.90;;;;;;5111654;28;20587;-58
2022/04/30 12:58:35;;;;;;;9.68;4.13;;;23.70;99.90;;;;;;5111680;28;20568;-58
2022/04/30 13:01:01;;;;;;;6.95;3.65;;;23.80;99.90;;;;;;5111646;28;20171;-58
2022/04/30 13:03:28;;;;;;;4.63;3.40;;;23.60;99.90;;;;;;5111660;28;20163;-58
2022/04/30 13:05:54;;;;;;;5.25;3.10;;;23.70;99.90;;;;;;5110613;28;20171;-58
2022/04/30 13:08:19;;;;;;;6.13;3.58;;;24.10;99.90;;;;;;5111262;28;20198;-57
2022/04/30 13:13:33;;;;;;;5.40;3.55;;;23.60;99.90;;;;;;5111794;28;20178;-58
2022/04/30 13:16:03;;;;;;;4.22;2.78;;;24.20;99.90;;;;;;5111527;28;20239;-58
2022/04/30 13:18:29;;;;;;;4.07;3.05;;;24.20;99.30;;;;;;5111493;28;20167;-58
2022/04/30 13:20:54;;;;;;;4.60;2.75;;;24.70;99.80;;;;;;5111404;28;20167;-58